createdAt,value
2022-09-01T00:00:35.564Z,14.63
2022-09-01T00:03:37.668Z,14.65
2022-09-01T00:06:40.990Z,14.49
2022-09-01T00:09:43.199Z,14.35
2022-09-01T00:12:45.855Z,14.37
2022-09-01T00:15:47.948Z,14.43
2022-09-01T00:18:52.043Z,14.20
2022-09-01T00:21:54.182Z,14.12
2022-09-01T00:24:56.739Z,13.98
2022-09-01T00:28:00.407Z,14.12
2022-09-01T00:31:03.094Z,14.08
2022-09-01T00:34:05.368Z,14.14
2022-09-01T00:37:07.820Z,14.16
2022-09-01T00:40:11.767Z,13.87
2022-09-01T00:43:15.045Z,13.86
2022-09-01T00:46:55.304Z,14.19
2022-09-01T00:49:57.987Z,14.21
2022-09-01T00:53:00.858Z,14.04
2022-09-01T00:56:04.408Z,14.30
2022-09-01T00:59:07.255Z,14.22
2022-09-01T01:02:11.019Z,14.11
2022-09-01T01:05:14.427Z,14.12
2022-09-01T01:08:19.957Z,14.13
2022-09-01T01:11:22.182Z,14.01
2022-09-01T01:14:24.307Z,13.94
2022-09-01T01:17:26.402Z,14.04
2022-09-01T01:20:47.248Z,13.97
2022-09-01T01:24:02.218Z,13.77
2022-09-01T01:27:05.261Z,14.14
2022-09-01T01:30:11.141Z,14.13
2022-09-01T01:33:13.402Z,14.19
2022-09-01T01:36:35.896Z,14.20
2022-09-01T01:39:40.939Z,14.51
2022-09-01T01:42:48.590Z,14.27
2022-09-01T01:45:53.517Z,14.44
2022-09-01T01:49:02.195Z,14.48
2022-09-01T01:52:08.071Z,14.25
2022-09-01T01:55:12.730Z,14.65
2022-09-01T01:58:21.985Z,14.70
2022-09-01T02:01:28.876Z,14.81
2022-09-01T02:04:34.227Z,14.45
2022-09-01T02:07:42.902Z,14.79
2022-09-01T02:10:46.727Z,15.27
2022-09-01T02:13:49.744Z,14.90
2022-09-01T02:16:53.267Z,14.67
2022-09-01T02:19:57.538Z,14.63
2022-09-01T02:23:10.640Z,14.45
2022-09-01T02:26:17.548Z,14.47
2022-09-01T02:29:22.908Z,14.41
2022-09-01T02:32:25.250Z,14.20
2022-09-01T02:35:37.905Z,14.39
2022-09-01T02:38:42.978Z,14.28
2022-09-01T02:41:48.113Z,14.04
2022-09-01T02:44:50.267Z,14.08
2022-09-01T02:47:54.271Z,14.30
2022-09-01T02:50:57.359Z,13.87
2022-09-01T02:54:01.370Z,13.94
2022-09-01T02:57:04.097Z,14.00
2022-09-01T03:00:20.785Z,13.92
2022-09-01T03:03:23.767Z,14.06
2022-09-01T03:06:26.570Z,13.75
2022-09-01T03:09:28.651Z,14.01
2022-09-01T03:12:31.308Z,13.37
2022-09-01T03:15:34.117Z,13.59
2022-09-01T03:18:36.978Z,13.57
2022-09-01T03:21:41.768Z,13.20
2022-09-01T03:24:43.844Z,13.42
2022-09-01T03:27:47.427Z,13.25
2022-09-01T03:30:52.082Z,13.06
2022-09-01T03:33:57.083Z,13.12
2022-09-01T03:37:08.054Z,13.16
2022-09-01T03:40:12.083Z,12.99
2022-09-01T03:43:14.220Z,13.06
2022-09-01T03:46:21.740Z,12.79
2022-09-01T03:49:28.743Z,12.72
2022-09-01T03:52:33.003Z,12.90
2022-09-01T03:55:35.712Z,12.98
2022-09-01T03:58:38.915Z,12.99
2022-09-01T04:01:43.747Z,12.75
2022-09-01T04:04:46.067Z,12.89
2022-09-01T04:07:48.662Z,12.79
2022-09-01T04:10:54.433Z,12.77
2022-09-01T04:13:57.225Z,13.35
2022-09-01T04:17:17.835Z,13.00
2022-09-01T04:20:21.931Z,13.10
2022-09-01T04:23:33.625Z,12.88
2022-09-01T04:26:42.940Z,12.90
2022-09-01T04:29:46.832Z,13.09
2022-09-01T04:32:48.932Z,12.91
2022-09-01T04:35:52.182Z,12.99
2022-09-01T04:39:00.704Z,13.14
2022-09-01T04:42:06.917Z,13.58
2022-09-01T04:45:11.262Z,13.37
2022-09-01T04:48:22.163Z,13.19
2022-09-01T04:51:28.110Z,13.25
2022-09-01T04:54:32.930Z,13.20
2022-09-01T04:57:35.305Z,13.28
2022-09-01T05:00:37.787Z,13.18
2022-09-01T05:03:39.998Z,13.11
2022-09-01T05:07:10.271Z,13.29
2022-09-01T05:10:14.579Z,13.09
2022-09-01T05:13:23.652Z,12.93
2022-09-01T05:16:28.000Z,13.34
2022-09-01T05:19:32.791Z,13.53
2022-09-01T05:22:35.853Z,13.51
2022-09-01T05:25:44.162Z,13.72
2022-09-01T05:28:48.571Z,13.71
2022-09-01T05:31:52.698Z,14.02
2022-09-01T05:34:55.420Z,13.96
2022-09-01T05:37:59.504Z,14.01
2022-09-01T05:41:04.075Z,14.14
2022-09-01T05:44:08.198Z,13.94
2022-09-01T05:47:20.569Z,14.19
2022-09-01T05:50:28.276Z,14.09
2022-09-01T05:53:31.103Z,14.35
2022-09-01T05:56:33.924Z,14.58
2022-09-01T05:59:36.049Z,14.15
2022-09-01T06:02:42.876Z,14.23
2022-09-01T06:05:52.636Z,14.40
2022-09-01T06:08:58.239Z,14.46
2022-09-01T06:12:02.008Z,14.42
2022-09-01T06:15:07.243Z,14.22
2022-09-01T06:18:12.782Z,14.19
2022-09-01T06:21:24.738Z,14.20
2022-09-01T06:24:27.427Z,14.13
2022-09-01T06:27:29.888Z,14.20
2022-09-01T06:30:36.506Z,14.67
2022-09-01T06:33:44.675Z,14.52
2022-09-01T06:36:49.619Z,14.29
2022-09-01T06:39:52.366Z,14.51
2022-09-01T06:42:54.990Z,14.38
2022-09-01T06:45:57.312Z,14.25
2022-09-01T06:48:59.494Z,14.80
2022-09-01T06:52:05.757Z,14.46
2022-09-01T06:55:14.338Z,14.51
2022-09-01T06:58:16.624Z,14.40
2022-09-01T07:01:27.627Z,14.98
2022-09-01T07:04:31.610Z,15.06
2022-09-01T07:08:04.840Z,14.95
2022-09-01T07:18:14.910Z,14.98
2022-09-01T07:24:40.564Z,15.27
2022-09-01T07:28:02.139Z,15.22
2022-09-01T07:42:56.830Z,15.70
2022-09-01T07:45:25.410Z,16.27
2022-09-01T07:49:02.641Z,16.06
2022-09-01T07:51:55.298Z,16.38
2022-09-01T07:54:58.392Z,16.57
2022-09-01T07:58:00.552Z,16.36
2022-09-01T08:01:11.473Z,17.16
2022-09-01T08:04:15.270Z,17.44
2022-09-01T08:07:18.282Z,17.36
2022-09-01T08:10:21.067Z,17.42
2022-09-01T08:13:24.869Z,17.61
2022-09-01T08:16:39.424Z,17.87
2022-09-01T08:19:44.066Z,18.94
2022-09-01T08:22:48.934Z,17.96
2022-09-01T08:26:10.120Z,18.12
2022-09-01T08:29:12.383Z,18.31
2022-09-01T08:32:17.513Z,18.44
2022-09-01T08:35:20.661Z,18.63
2022-09-01T08:38:23.368Z,19.20
2022-09-01T08:41:46.817Z,19.30
2022-09-01T08:44:54.967Z,18.67
2022-09-01T08:51:58.063Z,19.66
2022-09-01T08:55:26.456Z,19.52
2022-09-01T08:58:32.337Z,19.84
2022-09-01T09:02:12.125Z,20.75
2022-09-01T09:05:43.698Z,20.83
2022-09-01T09:09:05.651Z,20.00
2022-09-01T09:12:49.141Z,20.20
2022-09-01T09:16:23.082Z,19.92
2022-09-01T09:19:29.183Z,19.82
2022-09-01T09:22:32.318Z,19.82
2022-09-01T09:25:34.445Z,19.89
2022-09-01T09:28:40.143Z,19.78
2022-09-01T09:31:49.972Z,19.72
2022-09-01T09:34:52.767Z,19.80
2022-09-01T09:37:56.234Z,20.14
2022-09-01T09:41:20.625Z,19.40
2022-09-01T09:44:29.463Z,20.55
2022-09-01T09:47:43.937Z,20.17
2022-09-01T09:50:47.074Z,19.82
2022-09-01T09:53:50.476Z,20.84
2022-09-01T09:57:11.723Z,22.52
2022-09-01T10:00:26.069Z,21.37
2022-09-01T10:03:42.323Z,20.40
2022-09-01T10:06:47.448Z,20.35
2022-09-01T10:09:49.832Z,20.30
2022-09-01T10:12:53.749Z,20.91
2022-09-01T10:16:16.318Z,21.09
2022-09-01T10:19:24.302Z,21.34
2022-09-01T10:22:26.443Z,21.81
2022-09-01T10:25:33.096Z,21.20
2022-09-01T10:28:49.621Z,21.18
2022-09-01T10:32:09.422Z,21.98
2022-09-01T10:35:40.686Z,21.36
2022-09-01T10:38:50.438Z,21.54
2022-09-01T10:41:59.971Z,21.99
2022-09-01T10:45:03.027Z,22.38
2022-09-01T10:48:32.497Z,21.27
2022-09-01T10:51:50.576Z,21.95
2022-09-01T10:54:56.772Z,23.73
2022-09-01T11:01:49.610Z,22.76
2022-09-01T11:04:52.165Z,23.56
2022-09-01T11:08:02.474Z,23.54
2022-09-01T11:11:31.451Z,24.77
2022-09-01T11:14:35.876Z,24.26
2022-09-01T11:18:07.986Z,25.00
2022-09-01T11:21:25.650Z,24.27
2022-09-01T11:24:40.421Z,23.93
2022-09-01T11:27:51.364Z,24.18
2022-09-01T11:31:04.102Z,23.93
2022-09-01T11:34:19.264Z,24.66
2022-09-01T11:37:23.349Z,24.93
2022-09-01T11:40:32.435Z,24.23
2022-09-01T11:43:35.036Z,25.42
2022-09-01T11:46:37.539Z,24.32
2022-09-01T11:49:51.417Z,25.19
2022-09-01T11:53:04.516Z,23.81
2022-09-01T11:56:20.177Z,23.39
2022-09-01T11:59:36.388Z,23.02
2022-09-01T12:02:50.764Z,22.51
2022-09-01T12:06:02.897Z,22.81
2022-09-01T12:09:05.217Z,21.95
2022-09-01T12:12:08.520Z,24.03
2022-09-01T12:15:24.674Z,24.93
2022-09-01T12:18:35.954Z,24.39
2022-09-01T12:21:42.995Z,23.76
2022-09-01T12:24:48.206Z,24.58
2022-09-01T12:27:50.899Z,24.98
2022-09-01T12:30:53.778Z,23.87
2022-09-01T12:33:56.608Z,23.63
2022-09-01T12:37:21.323Z,24.44
2022-09-01T12:40:34.194Z,23.17
2022-09-01T12:43:39.035Z,24.22
2022-09-01T12:46:43.456Z,23.71
2022-09-01T12:49:52.089Z,23.09
2022-09-01T12:52:58.806Z,23.54
2022-09-01T12:56:16.527Z,25.17
2022-09-01T12:59:36.399Z,23.78
2022-09-01T13:02:40.916Z,24.40
2022-09-01T13:05:51.808Z,24.22
2022-09-01T13:08:54.036Z,22.95
2022-09-01T13:12:16.217Z,22.86
2022-09-01T13:15:18.531Z,22.00
2022-09-01T13:18:24.580Z,21.32
2022-09-01T13:21:27.651Z,23.57
2022-09-01T13:24:31.634Z,25.65
2022-09-01T13:27:34.146Z,27.18
2022-09-01T13:30:36.365Z,24.05
2022-09-01T13:37:00.618Z,23.61
2022-09-01T13:40:04.323Z,26.56
2022-09-01T13:43:08.563Z,24.28
2022-09-01T13:46:11.660Z,23.77
2022-09-01T13:52:36.084Z,22.79
2022-09-01T13:55:41.382Z,26.16
2022-09-01T13:58:43.516Z,27.66
2022-09-01T14:01:48.543Z,23.87
2022-09-01T14:04:50.732Z,23.11
2022-09-01T14:07:52.982Z,23.02
2022-09-01T14:10:55.149Z,26.03
2022-09-01T14:13:57.322Z,24.84
2022-09-01T14:16:59.534Z,22.83
2022-09-01T14:20:02.125Z,22.13
2022-09-01T14:23:04.915Z,26.79
2022-09-01T14:26:14.096Z,27.75
2022-09-01T14:29:16.722Z,23.21
2022-09-01T14:32:22.565Z,22.90
2022-09-01T14:35:24.935Z,27.34
2022-09-01T14:38:27.071Z,27.82
2022-09-01T14:41:29.178Z,25.34
2022-09-01T14:44:33.650Z,23.21
2022-09-01T14:47:36.411Z,26.71
2022-09-01T14:50:42.109Z,27.86
2022-09-01T14:53:44.263Z,29.66
2022-09-01T15:00:12.196Z,30.00
2022-09-01T15:03:15.759Z,24.72
2022-09-01T15:06:20.854Z,23.64
2022-09-01T15:09:23.003Z,26.38
2022-09-01T15:12:25.907Z,27.30
2022-09-01T15:15:28.860Z,29.16
2022-09-01T15:18:31.245Z,28.71
2022-09-01T15:21:34.016Z,29.44
2022-09-01T15:24:36.374Z,29.71
2022-09-01T15:27:41.476Z,30.91
2022-09-01T15:30:45.603Z,27.42
2022-09-01T15:33:48.640Z,27.60
2022-09-01T15:36:50.736Z,26.89
2022-09-01T15:39:52.818Z,24.37
2022-09-01T15:42:55.791Z,27.99
2022-09-01T15:45:58.703Z,29.19
2022-09-01T15:49:05.417Z,29.80
2022-09-01T15:52:07.527Z,28.50
2022-09-01T15:55:09.614Z,24.43
2022-09-01T15:58:14.748Z,27.43
2022-09-01T16:01:17.866Z,28.74
2022-09-01T16:04:22.984Z,29.63
2022-09-01T16:07:29.452Z,30.24
2022-09-01T16:10:35.068Z,30.84
2022-09-01T16:13:40.595Z,29.71
2022-09-01T16:17:00.339Z,29.98
2022-09-01T16:20:12.294Z,29.17
2022-09-01T16:23:20.727Z,28.65
2022-09-01T16:26:23.794Z,26.33
2022-09-01T16:29:46.847Z,28.62
2022-09-01T16:32:49.151Z,28.60
2022-09-01T16:36:26.550Z,28.50
2022-09-01T16:39:28.554Z,27.37
2022-09-01T16:42:47.058Z,28.26
2022-09-01T16:46:07.757Z,28.92
2022-09-01T16:49:40.142Z,27.67
2022-09-01T16:53:17.048Z,24.50
2022-09-01T16:56:32.519Z,23.38
2022-09-01T16:59:48.104Z,26.99
2022-09-01T17:02:59.843Z,28.45
2022-09-01T17:06:15.186Z,27.16
2022-09-01T17:09:35.399Z,28.19
2022-09-01T17:12:49.060Z,25.92
2022-09-01T17:15:57.498Z,23.46
2022-09-01T17:19:00.791Z,22.68
2022-09-01T17:22:08.452Z,21.69
2022-09-01T17:25:26.087Z,21.90
2022-09-01T17:28:38.954Z,22.66
2022-09-01T17:32:19.317Z,24.44
2022-09-01T17:35:38.021Z,25.52
2022-09-01T17:39:09.019Z,25.58
2022-09-01T17:42:27.852Z,25.82
2022-09-01T17:45:37.143Z,25.82
2022-09-01T17:48:43.960Z,25.44
2022-09-01T17:52:08.088Z,24.92
2022-09-01T17:55:37.185Z,24.85
2022-09-01T17:58:56.493Z,25.26
2022-09-01T18:02:42.792Z,23.45
2022-09-01T18:06:14.563Z,23.25
2022-09-01T18:09:18.296Z,23.36
2022-09-01T18:12:29.284Z,23.91
2022-09-01T18:15:43.171Z,23.50
2022-09-01T18:18:53.163Z,23.39
2022-09-01T18:22:01.626Z,21.93
2022-09-01T18:25:11.144Z,22.19
2022-09-01T18:28:14.770Z,21.99
2022-09-01T18:31:35.189Z,22.35
2022-09-01T18:35:33.956Z,21.81
2022-09-01T18:39:00.334Z,21.31
2022-09-01T18:42:39.108Z,20.56
2022-09-01T18:45:50.319Z,20.61
2022-09-01T18:49:01.249Z,19.99
2022-09-01T18:52:40.796Z,19.76
2022-09-01T18:56:14.196Z,20.11
2022-09-01T18:59:37.062Z,19.86
2022-09-01T19:02:51.776Z,19.43
2022-09-01T19:06:09.475Z,19.24
2022-09-01T19:09:30.974Z,18.92
2022-09-01T19:13:11.937Z,18.85
2022-09-01T19:16:49.209Z,18.50
2022-09-01T19:20:02.606Z,18.93
2022-09-01T19:23:17.091Z,18.81
2022-09-01T19:26:23.433Z,18.65
2022-09-01T19:29:46.910Z,18.64
2022-09-01T19:32:50.441Z,18.43
2022-09-01T19:35:57.678Z,18.32
2022-09-01T19:38:59.806Z,17.82
2022-09-01T19:42:07.140Z,17.81
2022-09-01T19:45:59.530Z,17.52
2022-09-01T19:49:15.929Z,17.36
2022-09-01T19:52:35.055Z,17.47
2022-09-01T19:56:00.538Z,17.77
2022-09-01T19:59:27.595Z,17.61
2022-09-01T20:02:37.285Z,17.80
2022-09-01T20:05:46.063Z,17.72
2022-09-01T20:09:07.828Z,17.89
2022-09-01T20:12:31.315Z,17.95
2022-09-01T20:16:02.186Z,17.81
2022-09-01T20:19:44.730Z,17.77
2022-09-01T20:22:46.918Z,18.09
2022-09-01T20:26:16.490Z,17.32
2022-09-01T20:29:41.211Z,17.69
2022-09-01T20:33:05.198Z,17.63
2022-09-01T20:36:36.663Z,17.75
2022-09-01T20:40:01.024Z,17.79
2022-09-01T20:43:22.601Z,17.91
2022-09-01T20:46:26.470Z,17.92
2022-09-01T20:49:28.762Z,17.84
2022-09-01T20:52:49.909Z,17.54
2022-09-01T20:56:40.467Z,17.59
2022-09-01T20:59:49.034Z,17.57
2022-09-01T21:03:18.687Z,17.44
2022-09-01T21:06:48.530Z,17.32
2022-09-01T21:10:07.486Z,17.43
2022-09-01T21:13:25.235Z,17.55
2022-09-01T21:17:10.690Z,17.37
2022-09-01T21:20:44.345Z,17.15
2022-09-01T21:23:48.294Z,17.44
2022-09-01T21:26:52.157Z,17.25
2022-09-01T21:30:09.508Z,17.35
2022-09-01T21:33:11.607Z,17.41
2022-09-01T21:36:13.690Z,17.44
2022-09-01T21:39:15.838Z,17.50
2022-09-01T21:42:17.919Z,17.51
2022-09-01T21:45:20.480Z,17.45
2022-09-01T21:48:22.711Z,17.54
2022-09-01T21:51:24.794Z,17.65
2022-09-01T21:54:26.924Z,17.44
2022-09-01T21:57:29.060Z,17.39
2022-09-01T22:00:33.239Z,17.89
2022-09-01T22:03:35.505Z,17.66
2022-09-01T22:06:39.509Z,17.50
2022-09-01T22:09:43.102Z,17.38
2022-09-01T22:12:46.479Z,17.40
2022-09-01T22:15:51.020Z,17.19
2022-09-01T22:18:53.115Z,17.43
2022-09-01T22:21:55.235Z,17.52
2022-09-01T22:24:57.316Z,17.18
2022-09-01T22:28:05.151Z,17.30
2022-09-01T22:31:07.575Z,17.30
2022-09-01T22:34:09.799Z,17.53
2022-09-01T22:37:12.062Z,17.50
2022-09-01T22:40:15.577Z,17.41
2022-09-01T22:43:18.711Z,17.45
2022-09-01T22:46:22.073Z,17.44
2022-09-01T22:49:24.511Z,17.23
2022-09-01T22:52:26.572Z,17.34
2022-09-01T22:55:28.665Z,17.40
2022-09-01T22:58:30.795Z,17.09
2022-09-01T23:01:36.145Z,17.24
2022-09-01T23:04:39.363Z,17.27
2022-09-01T23:07:41.436Z,17.30
2022-09-01T23:10:43.559Z,17.03
2022-09-01T23:13:45.691Z,17.30
2022-09-01T23:16:51.079Z,17.49
2022-09-01T23:19:53.775Z,17.13
2022-09-01T23:22:56.209Z,16.91
2022-09-01T23:25:59.841Z,16.79
2022-09-01T23:29:02.424Z,16.84
2022-09-01T23:32:04.812Z,17.06
2022-09-01T23:35:07.739Z,17.07
2022-09-01T23:38:11.179Z,17.21
2022-09-01T23:41:17.145Z,17.10
2022-09-01T23:44:19.242Z,17.26
2022-09-01T23:47:21.331Z,17.34
2022-09-01T23:50:23.400Z,17.08
2022-09-01T23:53:29.207Z,17.10
2022-09-01T23:56:31.573Z,16.89
2022-09-01T23:59:38.756Z,16.92
